Johnstown, PA

11:39 AM EDT del 27 Marzo 2015 (GMT -0400)
Johnstown-Cambria County | | Change Station
CLOSE
Current Station
Aeroporto
Location: Johnstown,
Altitudine: 2283 ft
Stazioni meteo nelle vicinanze

Alt. 2283 ft 40.32 °N, 78.83 °W | Updated 45 minutes ago

Coperto
Coperto
32 °F
Sembra 24 °F
N
10
Vento Variabile Vento da NO

Oggi
Massima -- | Minima -- °F
--% Possibilità di precip.
Ieri
Massima -- | Minima -- °F
Precip. -- in
7:07 AM 7:34 PM
Primo quarto, 53% visible
Pressione 29.83 in
Visibilità 10.0 miglia
Nuvole Alcuni 1500 ft
Nubi sparse 2000 ft
Coperto 3100 ft
Raffreddamento del vento 24 °F
Punto di rugiada 25 °F
Umidità 75%
Piovosità 0.01 in
Spessore del manto nevoso Non disponibile.
Raggi UV 2 fuori da 12
Polline 5.10 fuori da 12
Qualità dell'aria Non disponibile.
Flu Activity Non disponibile.
METAR KJST 271454Z AUTO 31009KT 10SM FEW015 SCT020 OVC031 00/M04 A2977 RMK AO2 SLP099 T00001039 56002

More Conditions Fewer Conditions

Pressione 29.83 in
Visibilità 10.0 miglia
Nuvole Alcuni 1500 ft
Nubi sparse 2000 ft
Coperto 3100 ft
Raffreddamento del vento 24 °F
Punto di rugiada 25 °F
Umidità 75%
Piovosità 0.01 in
Spessore del manto nevoso Non disponibile.
Raggi UV 2 fuori da 12
Polline 5.10 fuori da 12
Qualità dell'aria Non disponibile.
Flu Activity Non disponibile.
METAR KJST 271454Z AUTO 31009KT 10SM FEW015 SCT020 OVC031 00/M04 A2977 RMK AO2 SLP099 T00001039 56002

More Conditions Fewer Conditions

10-Day Weather Forecast

Almanac

Astronomia

Mar. 27, 2015 Alba Tramonto
Ora attuale
Crepuscolo civile
Crepuscolo nautico
Crepuscolo astronomico
Luna
Estensione della luce visibile
Lunghezza del giorno
Tomorrow will be .
, % of the Moon is Illuminated

Gli estremi di oggi

State Highs State Lows

Community

WunderPhotos

Upload Photos

1,808,755 foto caricate!

WunderBlogs® & News

Nearby

Qualità dell'aria

  Qualità dell'aria Indice AQ Inquinante
Not available.

Profondità neve

Stazione Profondità Altitudine

Attività sismica

Città  Distanza Mag. Data & Ora
Minimo Magnitudo Mostrato è 2.5.

Temperature delle acque costiere

Località Temperatura

Stations

Stazioni meteo nelle vicinanze

Ubicazione della stazione Temp. Raffreddamento del vento Punto di rugiada Umidità Vento Precip. Alt. Aggiornato Tipo